sensor_id;sensor_type;location;lat;lon;timestamp;pressure;altitude;pressure_sealevel;temperature;humidity
51926;BME280;37952;51.938;15.480;2023-03-20T00:01:34;99765.73;;;11.18;58.95
51926;BME280;37952;51.938;15.480;2023-03-20T00:04:37;99766.40;;;11.19;58.63
51926;BME280;37952;51.938;15.480;2023-03-20T00:07:40;99769.88;;;11.20;59.23
51926;BME280;37952;51.938;15.480;2023-03-20T00:10:45;99768.73;;;11.16;59.86
51926;BME280;37952;51.938;15.480;2023-03-20T00:13:48;99764.08;;;11.14;59.41
51926;BME280;37952;51.938;15.480;2023-03-20T00:16:51;99762.77;;;11.15;59.62
51926;BME280;37952;51.938;15.480;2023-03-20T00:19:53;99763.80;;;11.15;59.48
51926;BME280;37952;51.938;15.480;2023-03-20T00:22:56;99764.63;;;11.16;60.16
51926;BME280;37952;51.938;15.480;2023-03-20T00:25:59;99765.41;;;11.18;60.03
51926;BME280;37952;51.938;15.480;2023-03-20T00:29:03;99764.52;;;11.18;59.65
51926;BME280;37952;51.938;15.480;2023-03-20T00:32:10;99764.04;;;11.18;60.91
51926;BME280;37952;51.938;15.480;2023-03-20T00:35:20;99766.00;;;11.17;61.35
51926;BME280;37952;51.938;15.480;2023-03-20T00:38:24;99764.13;;;11.19;61.31
51926;BME280;37952;51.938;15.480;2023-03-20T00:44:51;99760.38;;;11.23;61.98
51926;BME280;37952;51.938;15.480;2023-03-20T00:47:56;99761.05;;;11.23;62.52
51926;BME280;37952;51.938;15.480;2023-03-20T00:51:00;99759.43;;;11.24;62.05
51926;BME280;37952;51.938;15.480;2023-03-20T00:54:13;99760.74;;;11.22;62.23
51926;BME280;37952;51.938;15.480;2023-03-20T00:57:21;99757.27;;;11.22;62.34
51926;BME280;37952;51.938;15.480;2023-03-20T01:00:38;99754.86;;;11.23;62.44
51926;BME280;37952;51.938;15.480;2023-03-20T01:03:42;99750.48;;;11.26;62.32
51926;BME280;37952;51.938;15.480;2023-03-20T01:06:46;99749.71;;;11.24;62.17
51926;BME280;37952;51.938;15.480;2023-03-20T01:09:49;99750.64;;;11.23;62.07
51926;BME280;37952;51.938;15.480;2023-03-20T01:12:52;99750.21;;;11.21;62.20
51926;BME280;37952;51.938;15.480;2023-03-20T01:15:55;99751.00;;;11.23;62.67
51926;BME280;37952;51.938;15.480;2023-03-20T01:18:59;99751.81;;;11.24;62.18
51926;BME280;37952;51.938;15.480;2023-03-20T01:22:02;99750.38;;;11.27;62.67
51926;BME280;37952;51.938;15.480;2023-03-20T01:25:06;99752.73;;;11.29;63.61
51926;BME280;37952;51.938;15.480;2023-03-20T01:28:18;99751.83;;;11.29;62.77
51926;BME280;37952;51.938;15.480;2023-03-20T01:31:22;99749.36;;;11.29;64.09
51926;BME280;37952;51.938;15.480;2023-03-20T01:34:24;99753.27;;;11.28;63.81
51926;BME280;37952;51.938;15.480;2023-03-20T01:37:29;99755.17;;;11.29;64.45
51926;BME280;37952;51.938;15.480;2023-03-20T01:43:41;99752.59;;;11.26;64.46
51926;BME280;37952;51.938;15.480;2023-03-20T01:46:44;99753.04;;;11.22;65.09
51926;BME280;37952;51.938;15.480;2023-03-20T01:53:33;99749.95;;;11.28;65.70
51926;BME280;37952;51.938;15.480;2023-03-20T01:56:43;99750.84;;;11.28;65.48
51926;BME280;37952;51.938;15.480;2023-03-20T01:59:57;99746.23;;;11.26;65.13
51926;BME280;37952;51.938;15.480;2023-03-20T02:03:03;99745.59;;;11.28;65.87
51926;BME280;37952;51.938;15.480;2023-03-20T02:06:07;99746.45;;;11.23;66.76
51926;BME280;37952;51.938;15.480;2023-03-20T02:09:19;99744.70;;;11.22;65.75
51926;BME280;37952;51.938;15.480;2023-03-20T02:12:22;99742.48;;;11.27;65.90
51926;BME280;37952;51.938;15.480;2023-03-20T02:15:26;99742.72;;;11.26;66.02
51926;BME280;37952;51.938;15.480;2023-03-20T02:18:30;99737.06;;;11.26;65.74
51926;BME280;37952;51.938;15.480;2023-03-20T02:25:46;99731.27;;;11.25;66.26
51926;BME280;37952;51.938;15.480;2023-03-20T02:39:53;99717.64;;;11.23;67.88
51926;BME280;37952;51.938;15.480;2023-03-20T02:43:24;99718.05;;;11.20;68.46
51926;BME280;37952;51.938;15.480;2023-03-20T02:49:54;99714.19;;;11.11;68.02
51926;BME280;37952;51.938;15.480;2023-03-20T02:56:23;99723.62;;;11.18;67.25
51926;BME280;37952;51.938;15.480;2023-03-20T02:59:46;99726.23;;;11.18;66.32
51926;BME280;37952;51.938;15.480;2023-03-20T03:02:59;99724.83;;;11.21;67.89
51926;BME280;37952;51.938;15.480;2023-03-20T03:06:26;99726.05;;;11.22;67.48
51926;BME280;37952;51.938;15.480;2023-03-20T03:09:39;99726.51;;;11.20;66.94
51926;BME280;37952;51.938;15.480;2023-03-20T03:12:45;99724.45;;;11.16;67.26
51926;BME280;37952;51.938;15.480;2023-03-20T03:15:53;99721.86;;;11.15;66.72
51926;BME280;37952;51.938;15.480;2023-03-20T03:19:14;99721.48;;;11.18;66.58
51926;BME280;37952;51.938;15.480;2023-03-20T03:22:19;99723.55;;;11.19;66.66
51926;BME280;37952;51.938;15.480;2023-03-20T03:25:25;99726.69;;;11.20;66.48
51926;BME280;37952;51.938;15.480;2023-03-20T03:28:39;99724.67;;;11.18;66.73
51926;BME280;37952;51.938;15.480;2023-03-20T03:31:50;99722.92;;;11.17;66.73
51926;BME280;37952;51.938;15.480;2023-03-20T03:34:54;99723.50;;;11.14;67.42
51926;BME280;37952;51.938;15.480;2023-03-20T03:38:02;99719.73;;;11.12;67.09
51926;BME280;37952;51.938;15.480;2023-03-20T03:41:28;99719.70;;;11.15;66.87
51926;BME280;37952;51.938;15.480;2023-03-20T03:44:42;99719.91;;;11.15;67.13
51926;BME280;37952;51.938;15.480;2023-03-20T03:47:54;99721.02;;;11.12;66.65
51926;BME280;37952;51.938;15.480;2023-03-20T03:51:06;99714.20;;;11.13;66.26
51926;BME280;37952;51.938;15.480;2023-03-20T03:54:15;99717.96;;;11.15;66.39
51926;BME280;37952;51.938;15.480;2023-03-20T03:57:26;99720.52;;;11.16;66.53
51926;BME280;37952;51.938;15.480;2023-03-20T04:00:31;99715.39;;;11.17;66.42
51926;BME280;37952;51.938;15.480;2023-03-20T04:03:37;99717.57;;;11.15;66.64
51926;BME280;37952;51.938;15.480;2023-03-20T04:06:41;99719.09;;;11.11;66.94
51926;BME280;37952;51.938;15.480;2023-03-20T04:09:53;99716.88;;;11.10;66.47
51926;BME280;37952;51.938;15.480;2023-03-20T04:12:55;99711.77;;;11.07;67.39
51926;BME280;37952;51.938;15.480;2023-03-20T04:15:59;99713.36;;;11.04;67.57
51926;BME280;37952;51.938;15.480;2023-03-20T04:19:02;99713.45;;;11.03;67.37
51926;BME280;37952;51.938;15.480;2023-03-20T04:22:04;99710.73;;;11.01;66.89
51926;BME280;37952;51.938;15.480;2023-03-20T04:25:22;99714.67;;;11.03;67.13
51926;BME280;37952;51.938;15.480;2023-03-20T04:28:26;99712.67;;;11.04;67.82
51926;BME280;37952;51.938;15.480;2023-03-20T04:31:28;99707.05;;;11.03;67.84
51926;BME280;37952;51.938;15.480;2023-03-20T04:34:32;99705.77;;;11.04;67.92
51926;BME280;37952;51.938;15.480;2023-03-20T04:37:34;99714.25;;;11.07;67.51
51926;BME280;37952;51.938;15.480;2023-03-20T04:40:38;99717.04;;;11.05;67.41
51926;BME280;37952;51.938;15.480;2023-03-20T04:43:40;99721.30;;;11.04;67.16
51926;BME280;37952;51.938;15.480;2023-03-20T04:46:43;99723.11;;;11.06;67.66
51926;BME280;37952;51.938;15.480;2023-03-20T04:49:46;99723.51;;;11.06;67.32
51926;BME280;37952;51.938;15.480;2023-03-20T04:52:49;99725.45;;;11.03;68.15
51926;BME280;37952;51.938;15.480;2023-03-20T04:55:51;99725.72;;;10.96;68.67
51926;BME280;37952;51.938;15.480;2023-03-20T04:58:54;99726.05;;;10.90;68.41
51926;BME280;37952;51.938;15.480;2023-03-20T05:01:57;99726.67;;;10.94;68.15
51926;BME280;37952;51.938;15.480;2023-03-20T05:04:59;99725.65;;;10.97;68.15
51926;BME280;37952;51.938;15.480;2023-03-20T05:08:04;99729.85;;;10.94;68.46
51926;BME280;37952;51.938;15.480;2023-03-20T05:11:07;99722.77;;;10.86;68.58
51926;BME280;37952;51.938;15.480;2023-03-20T05:14:10;99735.23;;;10.90;68.65
51926;BME280;37952;51.938;15.480;2023-03-20T05:17:13;99731.18;;;10.87;68.75
51926;BME280;37952;51.938;15.480;2023-03-20T05:20:16;99732.55;;;10.88;69.21
51926;BME280;37952;51.938;15.480;2023-03-20T05:23:20;99729.13;;;10.89;69.19
51926;BME280;37952;51.938;15.480;2023-03-20T05:26:23;99733.61;;;10.90;68.78
51926;BME280;37952;51.938;15.480;2023-03-20T05:29:26;99737.20;;;10.89;69.35
51926;BME280;37952;51.938;15.480;2023-03-20T05:32:28;99737.79;;;10.86;69.23
51926;BME280;37952;51.938;15.480;2023-03-20T05:35:32;99739.79;;;10.85;69.47
51926;BME280;37952;51.938;15.480;2023-03-20T05:38:35;99739.73;;;10.89;69.08
51926;BME280;37952;51.938;15.480;2023-03-20T05:41:38;99741.48;;;10.94;68.66
51926;BME280;37952;51.938;15.480;2023-03-20T05:44:41;99744.51;;;10.97;68.85
51926;BME280;37952;51.938;15.480;2023-03-20T05:47:44;99750.90;;;10.96;68.92
51926;BME280;37952;51.938;15.480;2023-03-20T05:50:47;99753.20;;;10.93;68.95
51926;BME280;37952;51.938;15.480;2023-03-20T05:53:50;99757.65;;;10.89;69.37
51926;BME280;37952;51.938;15.480;2023-03-20T05:56:52;99762.29;;;10.83;69.42
51926;BME280;37952;51.938;15.480;2023-03-20T05:59:55;99760.89;;;10.80;69.25
51926;BME280;37952;51.938;15.480;2023-03-20T06:02:58;99764.42;;;10.80;69.57
51926;BME280;37952;51.938;15.480;2023-03-20T06:06:02;99768.44;;;10.77;69.92
51926;BME280;37952;51.938;15.480;2023-03-20T06:09:08;99771.26;;;10.74;69.81
51926;BME280;37952;51.938;15.480;2023-03-20T06:12:10;99774.16;;;10.73;69.81
51926;BME280;37952;51.938;15.480;2023-03-20T06:15:14;99773.73;;;10.69;70.33
51926;BME280;37952;51.938;15.480;2023-03-20T06:18:18;99780.08;;;10.69;70.47
51926;BME280;37952;51.938;15.480;2023-03-20T06:21:21;99781.85;;;10.63;70.92
51926;BME280;37952;51.938;15.480;2023-03-20T06:24:24;99783.63;;;10.57;71.33
51926;BME280;37952;51.938;15.480;2023-03-20T06:27:27;99788.45;;;10.55;71.71
51926;BME280;37952;51.938;15.480;2023-03-20T06:30:29;99786.02;;;10.54;71.50
51926;BME280;37952;51.938;15.480;2023-03-20T06:33:33;99788.95;;;10.56;71.35
51926;BME280;37952;51.938;15.480;2023-03-20T06:36:35;99785.98;;;10.55;71.22
51926;BME280;37952;51.938;15.480;2023-03-20T06:39:39;99788.05;;;10.60;71.04
51926;BME280;37952;51.938;15.480;2023-03-20T06:42:43;99784.54;;;10.65;70.99
51926;BME280;37952;51.938;15.480;2023-03-20T06:45:47;99788.33;;;10.72;70.93
51926;BME280;37952;51.938;15.480;2023-03-20T06:48:50;99792.73;;;10.72;71.02
51926;BME280;37952;51.938;15.480;2023-03-20T06:51:53;99786.99;;;10.68;71.14
51926;BME280;37952;51.938;15.480;2023-03-20T06:54:56;99793.70;;;10.71;70.89
51926;BME280;37952;51.938;15.480;2023-03-20T06:57:59;99795.48;;;10.77;70.69
51926;BME280;37952;51.938;15.480;2023-03-20T07:01:08;99790.64;;;10.78;71.02
51926;BME280;37952;51.938;15.480;2023-03-20T07:04:11;99798.02;;;10.78;70.82
51926;BME280;37952;51.938;15.480;2023-03-20T07:07:13;99794.59;;;10.79;70.97
51926;BME280;37952;51.938;15.480;2023-03-20T07:10:16;99796.09;;;10.81;70.84
51926;BME280;37952;51.938;15.480;2023-03-20T07:13:19;99794.36;;;10.83;71.04
51926;BME280;37952;51.938;15.480;2023-03-20T07:16:22;99796.33;;;10.86;71.10
51926;BME280;37952;51.938;15.480;2023-03-20T07:19:24;99796.44;;;10.81;71.83
51926;BME280;37952;51.938;15.480;2023-03-20T07:22:28;99792.05;;;10.81;71.41
51926;BME280;37952;51.938;15.480;2023-03-20T07:25:31;99797.88;;;10.89;71.47
51926;BME280;37952;51.938;15.480;2023-03-20T07:28:44;99793.27;;;10.92;71.29
51926;BME280;37952;51.938;15.480;2023-03-20T07:31:50;99794.35;;;10.98;71.61
51926;BME280;37952;51.938;15.480;2023-03-20T07:34:53;99802.07;;;11.04;71.63
51926;BME280;37952;51.938;15.480;2023-03-20T07:37:56;99805.05;;;11.05;71.92
51926;BME280;37952;51.938;15.480;2023-03-20T07:40:59;99808.66;;;11.01;72.14
51926;BME280;37952;51.938;15.480;2023-03-20T07:44:02;99802.68;;;11.06;71.87
51926;BME280;37952;51.938;15.480;2023-03-20T07:47:05;99810.64;;;11.14;71.80
51926;BME280;37952;51.938;15.480;2023-03-20T07:50:09;99812.98;;;11.23;71.73
51926;BME280;37952;51.938;15.480;2023-03-20T07:53:12;99813.70;;;11.27;71.60
51926;BME280;37952;51.938;15.480;2023-03-20T07:56:14;99817.20;;;11.31;71.41
51926;BME280;37952;51.938;15.480;2023-03-20T07:59:17;99820.79;;;11.30;71.49
51926;BME280;37952;51.938;15.480;2023-03-20T08:02:21;99816.92;;;11.27;71.75
51926;BME280;37952;51.938;15.480;2023-03-20T08:05:24;99818.11;;;11.31;71.72
51926;BME280;37952;51.938;15.480;2023-03-20T08:08:28;99818.79;;;11.39;71.44
51926;BME280;37952;51.938;15.480;2023-03-20T08:11:31;99812.27;;;11.45;71.20
51926;BME280;37952;51.938;15.480;2023-03-20T08:14:36;99815.91;;;11.49;71.19
51926;BME280;37952;51.938;15.480;2023-03-20T08:17:44;99811.45;;;11.52;71.05
51926;BME280;37952;51.938;15.480;2023-03-20T08:20:47;99812.50;;;11.61;71.13
51926;BME280;37952;51.938;15.480;2023-03-20T08:23:51;99814.27;;;11.66;71.01
51926;BME280;37952;51.938;15.480;2023-03-20T08:26:54;99813.60;;;11.66;70.84
51926;BME280;37952;51.938;15.480;2023-03-20T08:29:57;99817.86;;;11.57;71.05
51926;BME280;37952;51.938;15.480;2023-03-20T08:33:00;99826.84;;;11.49;71.18
51926;BME280;37952;51.938;15.480;2023-03-20T08:36:04;99826.31;;;11.43;71.52
51926;BME280;37952;51.938;15.480;2023-03-20T08:39:10;99827.92;;;11.43;71.80
51926;BME280;37952;51.938;15.480;2023-03-20T08:42:16;99820.79;;;11.38;71.84
51926;BME280;37952;51.938;15.480;2023-03-20T08:45:20;99825.52;;;11.41;71.55
51926;BME280;37952;51.938;15.480;2023-03-20T08:48:23;99821.33;;;11.50;71.19
51926;BME280;37952;51.938;15.480;2023-03-20T08:51:26;99825.23;;;11.55;71.24
51926;BME280;37952;51.938;15.480;2023-03-20T08:54:28;99820.91;;;11.59;71.18
51926;BME280;37952;51.938;15.480;2023-03-20T08:57:32;99824.17;;;11.58;71.25
51926;BME280;37952;51.938;15.480;2023-03-20T09:00:35;99824.83;;;11.59;71.17
51926;BME280;37952;51.938;15.480;2023-03-20T09:03:37;99825.44;;;11.65;71.03
51926;BME280;37952;51.938;15.480;2023-03-20T09:06:44;99829.46;;;11.83;71.16
51926;BME280;37952;51.938;15.480;2023-03-20T09:09:51;99831.56;;;11.91;71.30
51926;BME280;37952;51.938;15.480;2023-03-20T09:12:54;99829.11;;;11.99;71.32
51926;BME280;37952;51.938;15.480;2023-03-20T09:15:57;99827.97;;;11.95;71.49
51926;BME280;37952;51.938;15.480;2023-03-20T09:18:59;99825.39;;;12.08;71.11
51926;BME280;37952;51.938;15.480;2023-03-20T09:22:03;99829.25;;;12.14;70.92
51926;BME280;37952;51.938;15.480;2023-03-20T09:25:06;99826.13;;;12.13;71.11
51926;BME280;37952;51.938;15.480;2023-03-20T09:28:09;99827.33;;;12.16;71.22
51926;BME280;37952;51.938;15.480;2023-03-20T09:31:13;99824.83;;;12.27;71.07
51926;BME280;37952;51.938;15.480;2023-03-20T09:34:16;99825.39;;;12.40;70.70
51926;BME280;37952;51.938;15.480;2023-03-20T09:37:19;99825.07;;;12.53;70.45
51926;BME280;37952;51.938;15.480;2023-03-20T09:40:26;99827.13;;;12.59;70.18
51926;BME280;37952;51.938;15.480;2023-03-20T09:47:13;99823.18;;;12.89;70.18
51926;BME280;37952;51.938;15.480;2023-03-20T09:50:27;99826.01;;;13.04;69.67
51926;BME280;37952;51.938;15.480;2023-03-20T09:53:46;99826.10;;;13.16;69.04
51926;BME280;37952;51.938;15.480;2023-03-20T09:56:51;99820.59;;;13.11;68.73
51926;BME280;37952;51.938;15.480;2023-03-20T10:00:00;99828.98;;;13.12;68.32
51926;BME280;37952;51.938;15.480;2023-03-20T10:03:06;99830.04;;;13.15;67.64
51926;BME280;37952;51.938;15.480;2023-03-20T10:06:17;99830.33;;;13.21;67.75
51926;BME280;37952;51.938;15.480;2023-03-20T10:09:22;99840.20;;;13.24;66.21
51926;BME280;37952;51.938;15.480;2023-03-20T10:16:00;99837.08;;;13.00;65.45
51926;BME280;37952;51.938;15.480;2023-03-20T10:22:23;99834.95;;;12.82;65.30
51926;BME280;37952;51.938;15.480;2023-03-20T10:25:34;99833.31;;;12.75;66.12
51926;BME280;37952;51.938;15.480;2023-03-20T10:28:47;99834.58;;;12.80;66.27
51926;BME280;37952;51.938;15.480;2023-03-20T10:32:02;99842.02;;;12.75;66.03
51926;BME280;37952;51.938;15.480;2023-03-20T10:35:22;99848.82;;;12.63;65.85
51926;BME280;37952;51.938;15.480;2023-03-20T10:38:41;99842.93;;;12.51;66.33
51926;BME280;37952;51.938;15.480;2023-03-20T10:41:55;99844.96;;;12.36;66.72
51926;BME280;37952;51.938;15.480;2023-03-20T10:45:08;99840.52;;;12.36;67.00
51926;BME280;37952;51.938;15.480;2023-03-20T10:51:36;99848.52;;;12.51;66.92
51926;BME280;37952;51.938;15.480;2023-03-20T10:54:44;99854.71;;;12.51;66.85
51926;BME280;37952;51.938;15.480;2023-03-20T10:57:53;99847.98;;;12.41;67.33
51926;BME280;37952;51.938;15.480;2023-03-20T11:00:57;99849.60;;;12.41;67.24
51926;BME280;37952;51.938;15.480;2023-03-20T11:04:01;99848.54;;;12.43;67.33
51926;BME280;37952;51.938;15.480;2023-03-20T11:10:30;99848.08;;;12.61;66.95
51926;BME280;37952;51.938;15.480;2023-03-20T11:13:41;99844.16;;;12.67;66.84
51926;BME280;37952;51.938;15.480;2023-03-20T11:16:48;99847.73;;;12.68;66.94
51926;BME280;37952;51.938;15.480;2023-03-20T11:19:51;99844.46;;;12.65;66.78
51926;BME280;37952;51.938;15.480;2023-03-20T11:23:00;99848.63;;;12.60;66.78
51926;BME280;37952;51.938;15.480;2023-03-20T11:26:11;99848.96;;;12.55;67.17
51926;BME280;37952;51.938;15.480;2023-03-20T11:29:30;99853.58;;;12.47;67.85
51926;BME280;37952;51.938;15.480;2023-03-20T11:32:40;99871.56;;;12.29;70.37
51926;BME280;37952;51.938;15.480;2023-03-20T11:35:52;99867.67;;;11.90;71.91
51926;BME280;37952;51.938;15.480;2023-03-20T11:39:25;99865.89;;;11.60;72.72
51926;BME280;37952;51.938;15.480;2023-03-20T11:42:29;99860.21;;;11.43;72.56
51926;BME280;37952;51.938;15.480;2023-03-20T11:45:37;99860.77;;;11.43;72.98
51926;BME280;37952;51.938;15.480;2023-03-20T11:48:43;99852.17;;;11.42;73.58
51926;BME280;37952;51.938;15.480;2023-03-20T11:51:50;99847.21;;;11.48;73.30
51926;BME280;37952;51.938;15.480;2023-03-20T11:54:55;99847.34;;;11.54;73.65
51926;BME280;37952;51.938;15.480;2023-03-20T11:58:04;99843.05;;;11.55;73.99
51926;BME280;37952;51.938;15.480;2023-03-20T12:01:11;99843.52;;;11.56;74.59
51926;BME280;37952;51.938;15.480;2023-03-20T12:04:33;99836.45;;;11.56;74.33
51926;BME280;37952;51.938;15.480;2023-03-20T12:07:39;99839.55;;;11.58;74.41
51926;BME280;37952;51.938;15.480;2023-03-20T12:10:45;99840.59;;;11.60;74.31
51926;BME280;37952;51.938;15.480;2023-03-20T12:13:52;99840.20;;;11.66;74.61
51926;BME280;37952;51.938;15.480;2023-03-20T12:17:21;99836.02;;;11.77;74.42
51926;BME280;37952;51.938;15.480;2023-03-20T12:24:30;99834.62;;;12.02;73.54
51926;BME280;37952;51.938;15.480;2023-03-20T12:27:37;99843.66;;;12.04;73.91
51926;BME280;37952;51.938;15.480;2023-03-20T12:30:53;99841.66;;;12.02;74.02
51926;BME280;37952;51.938;15.480;2023-03-20T12:34:04;99834.79;;;12.07;73.77
51926;BME280;37952;51.938;15.480;2023-03-20T12:37:12;99833.31;;;12.14;73.51
51926;BME280;37952;51.938;15.480;2023-03-20T12:40:17;99830.58;;;12.21;73.70
51926;BME280;37952;51.938;15.480;2023-03-20T12:43:26;99828.73;;;12.19;74.19
51926;BME280;37952;51.938;15.480;2023-03-20T12:46:54;99830.98;;;12.06;74.79
51926;BME280;37952;51.938;15.480;2023-03-20T12:50:17;99824.54;;;11.96;75.12
51926;BME280;37952;51.938;15.480;2023-03-20T12:53:44;99819.60;;;12.04;74.89
51926;BME280;37952;51.938;15.480;2023-03-20T13:00:17;99820.58;;;12.30;74.79
51926;BME280;37952;51.938;15.480;2023-03-20T13:07:01;99821.91;;;12.32;74.45
51926;BME280;37952;51.938;15.480;2023-03-20T13:20:28;99822.88;;;11.98;74.02
51926;BME280;37952;51.938;15.480;2023-03-20T13:23:41;99824.32;;;11.92;74.22
51926;BME280;37952;51.938;15.480;2023-03-20T13:27:06;99820.63;;;11.94;74.23
51926;BME280;37952;51.938;15.480;2023-03-20T13:40:29;99818.60;;;11.68;73.57
51926;BME280;37952;51.938;15.480;2023-03-20T13:43:42;99819.31;;;11.65;73.51
51926;BME280;37952;51.938;15.480;2023-03-20T13:46:54;99816.10;;;11.60;73.50
51926;BME280;37952;51.938;15.480;2023-03-20T13:50:37;99814.38;;;11.51;73.64
51926;BME280;37952;51.938;15.480;2023-03-20T13:57:41;99813.95;;;11.46;73.59
51926;BME280;37952;51.938;15.480;2023-03-20T14:01:05;99808.33;;;11.40;73.61
51926;BME280;37952;51.938;15.480;2023-03-20T14:04:16;99809.96;;;11.48;73.40
51926;BME280;37952;51.938;15.480;2023-03-20T14:07:33;99803.42;;;11.54;73.15
51926;BME280;37952;51.938;15.480;2023-03-20T14:10:36;99808.54;;;11.48;73.29
51926;BME280;37952;51.938;15.480;2023-03-20T14:13:49;99808.11;;;11.43;73.20
51926;BME280;37952;51.938;15.480;2023-03-20T14:17:13;99806.46;;;11.45;73.13
51926;BME280;37952;51.938;15.480;2023-03-20T14:20:39;99812.87;;;11.38;73.30
51926;BME280;37952;51.938;15.480;2023-03-20T14:23:47;99816.55;;;11.33;73.17
51926;BME280;37952;51.938;15.480;2023-03-20T14:26:57;99820.00;;;11.34;73.37
51926;BME280;37952;51.938;15.480;2023-03-20T14:33:41;99818.80;;;11.34;72.86
51926;BME280;37952;51.938;15.480;2023-03-20T14:36:54;99817.41;;;11.30;72.80
51926;BME280;37952;51.938;15.480;2023-03-20T14:40:13;99814.89;;;11.25;72.86
51926;BME280;37952;51.938;15.480;2023-03-20T14:46:48;99816.46;;;11.32;72.75
51926;BME280;37952;51.938;15.480;2023-03-20T14:56:15;99807.65;;;11.14;72.47
51926;BME280;37952;51.938;15.480;2023-03-20T14:59:19;99802.06;;;11.07;72.58
51926;BME280;37952;51.938;15.480;2023-03-20T15:02:27;99795.81;;;11.09;72.63
51926;BME280;37952;51.938;15.480;2023-03-20T15:05:32;99801.56;;;11.15;72.44
51926;BME280;37952;51.938;15.480;2023-03-20T15:08:46;99797.05;;;11.23;72.20
51926;BME280;37952;51.938;15.480;2023-03-20T15:11:50;99797.38;;;11.24;72.27
51926;BME280;37952;51.938;15.480;2023-03-20T15:14:55;99799.25;;;11.22;72.10
51926;BME280;37952;51.938;15.480;2023-03-20T15:18:25;99791.12;;;11.22;72.12
51926;BME280;37952;51.938;15.480;2023-03-20T15:21:37;99788.22;;;11.26;71.97
51926;BME280;37952;51.938;15.480;2023-03-20T15:24:50;99781.83;;;11.26;71.98
51926;BME280;37952;51.938;15.480;2023-03-20T15:27:54;99780.33;;;11.31;71.71
51926;BME280;37952;51.938;15.480;2023-03-20T15:30:57;99777.02;;;11.33;71.86
51926;BME280;37952;51.938;15.480;2023-03-20T15:34:03;99775.37;;;11.39;71.65
51926;BME280;37952;51.938;15.480;2023-03-20T15:37:13;99777.66;;;11.42;71.43
51926;BME280;37952;51.938;15.480;2023-03-20T15:40:29;99779.27;;;11.45;71.33
51926;BME280;37952;51.938;15.480;2023-03-20T15:43:45;99784.52;;;11.46;71.08
51926;BME280;37952;51.938;15.480;2023-03-20T15:47:00;99783.81;;;11.48;71.03
51926;BME280;37952;51.938;15.480;2023-03-20T15:50:03;99786.73;;;11.47;70.95
51926;BME280;37952;51.938;15.480;2023-03-20T15:53:07;99782.14;;;11.52;70.97
51926;BME280;37952;51.938;15.480;2023-03-20T15:56:16;99781.08;;;11.55;70.82
51926;BME280;37952;51.938;15.480;2023-03-20T15:59:24;99789.43;;;11.60;70.80
51926;BME280;37952;51.938;15.480;2023-03-20T16:02:28;99788.49;;;11.61;70.61
51926;BME280;37952;51.938;15.480;2023-03-20T16:05:31;99792.63;;;11.57;70.47
51926;BME280;37952;51.938;15.480;2023-03-20T16:08:34;99793.89;;;11.54;70.53
51926;BME280;37952;51.938;15.480;2023-03-20T16:11:40;99795.82;;;11.54;70.74
51926;BME280;37952;51.938;15.480;2023-03-20T16:14:45;99803.07;;;11.56;70.38
51926;BME280;37952;51.938;15.480;2023-03-20T16:17:51;99801.33;;;11.51;70.19
51926;BME280;37952;51.938;15.480;2023-03-20T16:21:00;99796.72;;;11.51;70.22
51926;BME280;37952;51.938;15.480;2023-03-20T16:24:13;99798.23;;;11.46;70.13
51926;BME280;37952;51.938;15.480;2023-03-20T16:30:32;99812.66;;;11.30;70.21
51926;BME280;37952;51.938;15.480;2023-03-20T16:33:38;99809.67;;;11.24;70.41
51926;BME280;37952;51.938;15.480;2023-03-20T16:36:41;99809.13;;;11.22;70.38
51926;BME280;37952;51.938;15.480;2023-03-20T16:39:44;99813.73;;;11.19;70.28
51926;BME280;37952;51.938;15.480;2023-03-20T16:42:47;99813.07;;;11.18;70.20
51926;BME280;37952;51.938;15.480;2023-03-20T16:45:52;99808.08;;;11.19;70.35
51926;BME280;37952;51.938;15.480;2023-03-20T16:48:57;99807.36;;;11.22;70.44
51926;BME280;37952;51.938;15.480;2023-03-20T16:52:12;99807.20;;;11.24;70.14
51926;BME280;37952;51.938;15.480;2023-03-20T16:55:28;99807.45;;;11.23;70.04
51926;BME280;37952;51.938;15.480;2023-03-20T16:58:33;99805.85;;;11.17;69.89
51926;BME280;37952;51.938;15.480;2023-03-20T17:01:40;99808.98;;;11.15;69.73
51926;BME280;37952;51.938;15.480;2023-03-20T17:04:46;99811.35;;;11.17;69.93
51926;BME280;37952;51.938;15.480;2023-03-20T17:07:50;99808.80;;;11.18;70.04
51926;BME280;37952;51.938;15.480;2023-03-20T17:10:59;99808.69;;;11.12;70.09
51926;BME280;37952;51.938;15.480;2023-03-20T17:14:05;99791.54;;;11.09;69.98
51926;BME280;37952;51.938;15.480;2023-03-20T17:17:12;99788.61;;;11.11;69.95
51926;BME280;37952;51.938;15.480;2023-03-20T17:20:22;99801.23;;;11.12;69.74
51926;BME280;37952;51.938;15.480;2023-03-20T17:23:27;99804.23;;;11.12;69.91
51926;BME280;37952;51.938;15.480;2023-03-20T17:26:31;99806.23;;;11.14;70.13
51926;BME280;37952;51.938;15.480;2023-03-20T17:29:34;99807.80;;;11.17;69.96
51926;BME280;37952;51.938;15.480;2023-03-20T17:32:37;99806.13;;;11.19;70.12
51926;BME280;37952;51.938;15.480;2023-03-20T17:35:40;99811.95;;;11.16;70.01
51926;BME280;37952;51.938;15.480;2023-03-20T17:38:43;99808.05;;;11.10;70.28
51926;BME280;37952;51.938;15.480;2023-03-20T17:41:46;99810.32;;;11.05;70.56
51926;BME280;37952;51.938;15.480;2023-03-20T17:44:49;99814.91;;;11.02;70.55
51926;BME280;37952;51.938;15.480;2023-03-20T17:47:52;99812.09;;;11.02;70.49
51926;BME280;37952;51.938;15.480;2023-03-20T17:50:56;99816.82;;;11.02;70.75
51926;BME280;37952;51.938;15.480;2023-03-20T17:53:59;99817.14;;;11.03;70.44
51926;BME280;37952;51.938;15.480;2023-03-20T17:57:21;99817.08;;;11.04;70.49
51926;BME280;37952;51.938;15.480;2023-03-20T18:00:25;99813.69;;;11.05;70.62